Time;durP1;ratioP1;P1;durP2;ratioP2;P2;SDS_P1;SDS_P2;PMS_P1;PMS_P2;Temp;Humidity;BMP_temperature;BMP_pressure;BME280_temperature;BME280_humidity;BME280_pressure;Samples;Min_cycle;Max_cycle;Signal;HPM_P1;HPM_P2
2023/09/05 00:02:24;;;;;;;3.45;3.15;;;19.70;99.90;;;;;;5055381;28;20082;-82
2023/09/05 00:04:54;;;;;;;6.30;3.53;;;19.70;99.90;;;;;;5038357;28;20024;-82
2023/09/05 00:07:20;;;;;;;4.32;3.20;;;19.70;99.90;;;;;;5073129;28;20052;-82
2023/09/05 00:09:46;;;;;;;3.80;3.30;;;19.70;99.90;;;;;;5021937;28;20059;-82
2023/09/05 00:12:11;;;;;;;4.22;3.10;;;19.70;99.90;;;;;;5055127;28;20032;-82
2023/09/05 00:14:37;;;;;;;3.80;3.17;;;19.70;99.90;;;;;;5039605;28;20020;-82
2023/09/05 00:17:03;;;;;;;3.53;3.22;;;19.70;99.90;;;;;;5058723;28;20388;-82
2023/09/05 00:19:29;;;;;;;4.53;3.33;;;19.70;99.90;;;;;;5059042;28;20350;-82
2023/09/05 00:21:54;;;;;;;3.88;3.10;;;19.70;99.90;;;;;;5041866;28;20032;-82
2023/09/05 00:24:38;;;;;;;3.95;3.10;;;19.70;99.90;;;;;;5058924;28;20066;-82
2023/09/05 00:27:09;;;;;;;5.22;3.15;;;19.70;99.90;;;;;;5038376;28;20857;-82
2023/09/05 00:29:35;;;;;;;3.83;3.40;;;19.70;99.90;;;;;;5038392;28;20083;-82
2023/09/05 00:32:03;;;;;;;3.70;3.00;;;19.70;99.90;;;;;;5038671;28;20052;-82
2023/09/05 00:34:33;;;;;;;5.28;3.40;;;19.70;99.90;;;;;;5058488;28;20025;-82
2023/09/05 00:37:00;;;;;;;3.42;2.80;;;19.70;99.90;;;;;;5075957;28;20020;-82
2023/09/05 00:39:30;;;;;;;4.22;2.90;;;19.70;99.90;;;;;;5076640;28;20020;-82
2023/09/05 00:41:56;;;;;;;3.28;2.97;;;19.70;99.90;;;;;;5076317;28;20440;-82
2023/09/05 00:44:27;;;;;;;3.53;2.58;;;19.70;99.90;;;;;;5059584;28;20060;-82
2023/09/05 00:46:55;;;;;;;3.65;3.00;;;19.70;99.90;;;;;;5038352;28;20027;-82
2023/09/05 00:49:27;;;;;;;4.18;2.88;;;19.70;99.90;;;;;;5038407;28;20028;-82
2023/09/05 00:51:57;;;;;;;3.53;2.72;;;19.70;99.90;;;;;;5038332;28;20025;-82
2023/09/05 00:54:23;;;;;;;3.40;2.97;;;19.60;99.90;;;;;;5060411;28;20467;-82
2023/09/05 00:56:49;;;;;;;3.10;2.67;;;19.60;99.90;;;;;;5039180;28;20033;-83
2023/09/05 00:59:15;;;;;;;3.47;2.90;;;19.60;99.90;;;;;;5038477;28;20025;-82
2023/09/05 01:01:41;;;;;;;4.03;2.95;;;19.70;99.90;;;;;;5041093;28;20487;-82
2023/09/05 01:04:07;;;;;;;3.00;2.70;;;19.60;99.90;;;;;;5041409;28;20025;-82
2023/09/05 01:06:57;;;;;;;3.20;2.67;;;19.60;99.90;;;;;;5041789;28;20032;-82
2023/09/05 01:09:53;;;;;;;3.10;2.42;;;19.60;99.90;;;;;;5057890;28;20024;-82
2023/09/05 01:12:20;;;;;;;4.63;2.70;;;19.60;99.90;;;;;;5058297;28;20082;-82
2023/09/05 01:14:45;;;;;;;3.22;2.60;;;19.50;99.90;;;;;;5041490;28;20369;-81
2023/09/05 01:17:11;;;;;;;3.95;2.95;;;19.50;99.90;;;;;;5038048;28;20021;-82
2023/09/05 01:19:41;;;;;;;3.47;2.55;;;19.50;99.90;;;;;;5042960;28;20107;-82
2023/09/05 01:22:15;;;;;;;3.83;2.90;;;19.50;99.90;;;;;;5078114;28;20536;-81
2023/09/05 01:24:41;;;;;;;2.95;2.65;;;19.60;99.90;;;;;;5099974;28;20035;-81
2023/09/05 01:27:11;;;;;;;3.38;2.55;;;19.50;99.90;;;;;;5098473;28;20016;-80
2023/09/05 01:29:39;;;;;;;3.72;2.58;;;19.50;99.90;;;;;;5098847;28;20048;-81
2023/09/05 01:32:10;;;;;;;4.00;3.08;;;19.60;99.90;;;;;;5061326;28;20028;-82
2023/09/05 01:34:37;;;;;;;3.00;2.70;;;19.50;99.90;;;;;;5076839;28;20024;-82
2023/09/05 01:37:03;;;;;;;3.90;2.97;;;19.50;99.90;;;;;;5060618;28;20035;-82
2023/09/05 01:39:28;;;;;;;3.25;2.83;;;19.50;99.90;;;;;;5021767;28;20116;-82
2023/09/05 01:41:55;;;;;;;3.60;2.85;;;19.50;99.90;;;;;;5021097;28;20415;-82
2023/09/05 01:44:21;;;;;;;4.88;2.97;;;19.40;99.90;;;;;;5037536;28;20540;-81
2023/09/05 01:46:47;;;;;;;3.92;2.95;;;19.40;99.90;;;;;;5055125;28;20053;-82
2023/09/05 01:49:12;;;;;;;4.32;3.20;;;19.40;99.90;;;;;;5020667;28;20197;-82
2023/09/05 01:51:38;;;;;;;4.82;3.20;;;19.30;99.90;;;;;;5046009;28;20022;-82
2023/09/05 01:54:04;;;;;;;3.25;2.95;;;19.30;99.90;;;;;;5028649;28;20522;-82
2023/09/05 01:56:29;;;;;;;4.00;3.05;;;19.30;99.90;;;;;;5037549;28;20028;-82
2023/09/05 01:58:55;;;;;;;3.95;3.13;;;19.20;99.90;;;;;;5020643;28;20048;-82
2023/09/05 02:01:21;;;;;;;3.90;3.03;;;19.20;99.90;;;;;;5020323;28;20377;-82
2023/09/05 02:03:48;;;;;;;3.65;2.85;;;19.20;99.90;;;;;;5037026;28;20036;-82
2023/09/05 02:06:13;;;;;;;5.18;3.30;;;19.20;99.90;;;;;;5036758;28;20035;-82
2023/09/05 02:08:39;;;;;;;4.47;3.00;;;19.20;99.90;;;;;;5037130;28;20021;-82
2023/09/05 02:11:05;;;;;;;4.28;3.35;;;19.20;99.90;;;;;;5020194;28;20163;-82
2023/09/05 02:13:31;;;;;;;4.60;3.15;;;19.10;99.90;;;;;;5020817;28;20056;-82
2023/09/05 02:15:57;;;;;;;3.40;2.97;;;19.10;99.90;;;;;;5020137;28;20036;-82
2023/09/05 02:18:23;;;;;;;4.35;3.13;;;19.10;99.90;;;;;;5032747;28;20025;-82
2023/09/05 02:20:49;;;;;;;4.13;3.20;;;19.10;99.90;;;;;;5036399;28;20142;-82
2023/09/05 02:23:14;;;;;;;3.85;3.30;;;19.10;99.90;;;;;;5021136;28;20060;-82
2023/09/05 02:25:41;;;;;;;4.55;3.28;;;19.10;99.90;;;;;;5037313;28;20032;-82
2023/09/05 02:28:07;;;;;;;4.57;3.25;;;19.10;99.90;;;;;;5041574;28;20037;-82
2023/09/05 02:30:39;;;;;;;4.15;3.40;;;19.10;99.90;;;;;;5048119;28;20075;-82
2023/09/05 02:33:08;;;;;;;3.72;3.17;;;19.10;99.90;;;;;;5051706;28;20475;-83
2023/09/05 02:35:34;;;;;;;3.67;3.22;;;19.00;99.90;;;;;;5039300;28;20021;-83
2023/09/05 02:37:59;;;;;;;4.60;3.42;;;19.00;99.90;;;;;;5039065;28;20037;-83
2023/09/05 02:40:25;;;;;;;3.85;3.10;;;19.00;99.90;;;;;;5039616;28;20024;-82
2023/09/05 02:42:51;;;;;;;5.85;3.50;;;19.00;99.90;;;;;;5056273;28;20005;-82
2023/09/05 02:45:16;;;;;;;5.07;3.75;;;19.00;99.90;;;;;;5041731;28;20036;-82
2023/09/05 02:47:42;;;;;;;3.60;3.00;;;19.00;99.90;;;;;;5036125;28;20028;-82
2023/09/05 02:50:08;;;;;;;4.07;3.15;;;19.00;99.90;;;;;;5037832;28;20326;-82
2023/09/05 02:52:34;;;;;;;3.90;3.30;;;18.90;99.90;;;;;;5046559;28;20073;-82
2023/09/05 02:55:03;;;;;;;3.70;3.33;;;18.90;99.90;;;;;;5036424;28;20520;-82
2023/09/05 02:57:29;;;;;;;4.10;3.35;;;18.90;99.90;;;;;;5065441;28;20020;-82
2023/09/05 02:59:55;;;;;;;5.47;3.58;;;18.90;99.90;;;;;;5039305;28;20031;-82
2023/09/05 03:02:23;;;;;;;4.03;3.30;;;18.90;99.90;;;;;;5063790;28;20021;-83
2023/09/05 03:04:58;;;;;;;4.65;3.42;;;18.90;99.90;;;;;;5036626;28;20048;-82
2023/09/05 03:07:24;;;;;;;3.83;2.90;;;18.80;99.90;;;;;;5019977;28;20024;-82
2023/09/05 03:09:51;;;;;;;5.60;3.20;;;18.80;99.90;;;;;;5036349;28;20029;-82
2023/09/05 03:12:17;;;;;;;3.45;3.15;;;18.90;99.90;;;;;;5036556;28;20091;-83
2023/09/05 03:14:43;;;;;;;5.22;3.50;;;18.80;99.90;;;;;;5051574;28;20011;-82
2023/09/05 03:17:09;;;;;;;7.10;3.42;;;18.80;99.90;;;;;;5044428;28;20021;-83
2023/09/05 03:19:39;;;;;;;5.20;4.32;;;18.80;99.90;;;;;;5054369;28;20031;-81
2023/09/05 03:22:06;;;;;;;7.55;3.72;;;18.80;99.90;;;;;;5061220;28;20021;-84
2023/09/05 03:24:33;;;;;;;4.65;4.00;;;18.80;99.90;;;;;;5060198;28;20021;-81
2023/09/05 03:26:58;;;;;;;5.28;4.15;;;18.80;99.90;;;;;;5050816;28;20028;-82
2023/09/05 03:29:24;;;;;;;3.90;3.50;;;18.80;99.90;;;;;;5038894;28;20056;-82
2023/09/05 03:31:50;;;;;;;4.60;3.63;;;18.80;99.90;;;;;;5038703;28;20029;-82
2023/09/05 03:34:16;;;;;;;3.45;3.13;;;18.70;99.90;;;;;;5035150;28;20373;-82
2023/09/05 03:36:42;;;;;;;6.95;3.83;;;18.70;99.90;;;;;;5018972;28;20036;-83
2023/09/05 03:39:07;;;;;;;4.53;3.75;;;18.70;99.90;;;;;;5035423;28;20029;-82
2023/09/05 03:41:33;;;;;;;4.70;3.90;;;18.70;99.90;;;;;;5043176;28;20028;-82
2023/09/05 03:43:58;;;;;;;6.47;3.88;;;18.60;99.90;;;;;;5002634;28;20021;-82
2023/09/05 03:46:24;;;;;;;5.47;3.88;;;18.70;99.90;;;;;;5035092;28;20033;-82
2023/09/05 03:48:52;;;;;;;4.00;3.53;;;18.60;99.90;;;;;;5022615;28;20021;-82
2023/09/05 03:51:17;;;;;;;7.10;4.15;;;18.60;99.90;;;;;;5038829;28;20360;-82
2023/09/05 03:53:43;;;;;;;4.28;3.47;;;18.60;99.90;;;;;;5073536;28;20013;-82
2023/09/05 03:56:08;;;;;;;4.30;3.60;;;18.60;99.90;;;;;;5054644;28;20469;-84
2023/09/05 03:58:34;;;;;;;4.38;3.90;;;18.60;99.90;;;;;;5055102;28;20033;-82
2023/09/05 04:01:03;;;;;;;4.30;3.72;;;18.50;99.90;;;;;;5055215;28;20021;-82
2023/09/05 04:03:32;;;;;;;3.95;3.60;;;18.50;99.90;;;;;;5054987;28;20025;-82
2023/09/05 04:06:01;;;;;;;4.13;3.53;;;18.50;99.90;;;;;;5073247;28;20021;-82
2023/09/05 04:08:27;;;;;;;4.75;3.90;;;18.50;99.90;;;;;;5072573;28;20081;-82
2023/09/05 04:10:59;;;;;;;4.55;3.50;;;18.50;99.90;;;;;;5055076;28;20025;-82
2023/09/05 04:13:26;;;;;;;5.32;4.07;;;18.50;99.90;;;;;;5054714;28;20021;-83
2023/09/05 04:15:52;;;;;;;4.47;3.55;;;18.50;99.90;;;;;;5052933;28;20032;-82
2023/09/05 04:18:18;;;;;;;6.50;3.65;;;18.50;99.90;;;;;;5018352;28;20033;-82
2023/09/05 04:20:44;;;;;;;3.83;3.50;;;18.50;99.90;;;;;;5035625;28;20024;-82
2023/09/05 04:23:12;;;;;;;4.80;3.60;;;18.50;99.90;;;;;;5059656;28;20115;-82
2023/09/05 04:25:40;;;;;;;4.25;3.85;;;18.50;99.90;;;;;;5072774;28;20104;-82
2023/09/05 04:28:08;;;;;;;3.83;3.42;;;18.50;99.90;;;;;;5054233;28;20016;-82
2023/09/05 04:30:35;;;;;;;4.30;3.28;;;18.50;99.90;;;;;;5052902;28;20396;-82
2023/09/05 04:33:03;;;;;;;5.18;3.92;;;18.50;99.90;;;;;;5052943;28;20334;-82
2023/09/05 04:35:29;;;;;;;4.72;3.80;;;18.40;99.90;;;;;;5018587;28;20063;-82
2023/09/05 04:37:55;;;;;;;4.63;4.15;;;18.40;99.90;;;;;;5035528;28;20055;-83
2023/09/05 04:40:24;;;;;;;4.65;4.10;;;18.40;99.90;;;;;;5035597;28;20029;-83
2023/09/05 04:42:50;;;;;;;4.80;4.30;;;18.30;99.90;;;;;;5039447;28;20033;-82
2023/09/05 04:45:15;;;;;;;4.13;3.67;;;18.30;99.90;;;;;;5025943;28;20086;-82
2023/09/05 04:47:41;;;;;;;7.78;4.45;;;18.30;99.90;;;;;;5016494;28;20055;-81
2023/09/05 04:50:10;;;;;;;4.53;3.80;;;18.20;99.90;;;;;;5049701;28;20028;-81
2023/09/05 04:52:36;;;;;;;3.97;3.58;;;18.20;99.90;;;;;;5025127;28;20045;-82
2023/09/05 04:55:01;;;;;;;5.20;3.90;;;18.20;99.90;;;;;;5039006;28;20020;-81
2023/09/05 04:57:28;;;;;;;4.45;3.92;;;18.20;99.90;;;;;;5045506;28;20439;-81
2023/09/05 04:59:57;;;;;;;5.82;4.43;;;18.10;99.90;;;;;;5051857;28;20024;-81
2023/09/05 05:02:26;;;;;;;4.80;4.13;;;18.10;99.90;;;;;;5053536;28;20017;-81
2023/09/05 05:04:53;;;;;;;5.88;4.40;;;18.10;99.90;;;;;;5045452;28;20017;-81
2023/09/05 05:07:19;;;;;;;4.90;4.40;;;18.10;99.90;;;;;;5046490;28;20072;-83
2023/09/05 05:09:46;;;;;;;5.63;4.15;;;18.10;99.90;;;;;;5063174;28;20028;-83
2023/09/05 05:12:12;;;;;;;5.68;4.82;;;18.10;99.90;;;;;;5080808;28;20032;-81
2023/09/05 05:14:38;;;;;;;5.57;4.25;;;18.00;99.90;;;;;;5065635;28;20015;-83
2023/09/05 05:17:04;;;;;;;6.32;4.15;;;18.00;99.90;;;;;;5048439;28;20044;-82
2023/09/05 05:19:29;;;;;;;5.35;4.85;;;18.00;99.90;;;;;;5056908;28;20044;-82
2023/09/05 05:21:55;;;;;;;6.05;3.97;;;17.90;99.90;;;;;;5063857;28;20368;-82
2023/09/05 05:24:22;;;;;;;6.35;4.25;;;18.00;99.90;;;;;;5043092;28;20402;-81
2023/09/05 05:26:48;;;;;;;5.53;4.35;;;18.00;99.90;;;;;;5026130;28;20020;-83
2023/09/05 05:29:14;;;;;;;4.43;4.03;;;18.00;99.90;;;;;;5061642;28;20060;-82
2023/09/05 05:31:39;;;;;;;4.53;3.70;;;18.00;99.90;;;;;;5032602;28;20379;-82
2023/09/05 05:34:06;;;;;;;4.50;4.10;;;18.00;99.90;;;;;;5025199;28;20013;-82
2023/09/05 05:36:32;;;;;;;4.45;4.03;;;18.00;99.90;;;;;;5010899;28;20033;-82
2023/09/05 05:39:02;;;;;;;6.47;4.40;;;18.10;99.90;;;;;;5065368;28;20103;-82
2023/09/05 05:41:28;;;;;;;5.38;4.30;;;18.00;99.90;;;;;;5071590;28;20079;-82
2023/09/05 05:43:55;;;;;;;4.88;4.03;;;18.10;99.90;;;;;;5052934;28;20364;-82
2023/09/05 05:46:21;;;;;;;4.97;4.40;;;18.10;99.90;;;;;;5047055;28;20025;-82
2023/09/05 05:48:47;;;;;;;6.18;3.92;;;18.10;99.90;;;;;;5054921;28;20028;-82
2023/09/05 05:51:13;;;;;;;4.97;4.18;;;18.10;99.90;;;;;;5057371;28;20449;-82
2023/09/05 05:53:39;;;;;;;4.95;3.78;;;18.20;99.90;;;;;;5040701;28;20119;-82
2023/09/05 05:56:08;;;;;;;4.45;3.70;;;18.20;99.90;;;;;;5018834;28;20021;-82
2023/09/05 05:58:34;;;;;;;4.75;3.97;;;18.20;99.90;;;;;;5037062;28;20029;-82
2023/09/05 06:01:00;;;;;;;4.72;3.90;;;18.20;99.90;;;;;;5055005;28;20028;-81
2023/09/05 06:03:26;;;;;;;6.03;4.15;;;18.30;99.90;;;;;;5054978;28;20025;-82
2023/09/05 06:05:51;;;;;;;4.97;4.00;;;18.30;99.90;;;;;;5020994;28;20029;-82
2023/09/05 06:08:18;;;;;;;5.90;4.40;;;18.30;99.90;;;;;;5020903;28;20017;-82
2023/09/05 06:10:44;;;;;;;8.27;4.13;;;18.30;99.90;;;;;;5054848;28;20009;-82
2023/09/05 06:13:11;;;;;;;6.43;4.13;;;18.30;99.90;;;;;;5036558;28;20044;-82
2023/09/05 06:15:37;;;;;;;5.90;4.00;;;18.30;99.90;;;;;;5037087;28;20082;-82
2023/09/05 06:18:05;;;;;;;4.68;3.92;;;18.40;99.90;;;;;;5036639;28;20616;-82
2023/09/05 06:20:34;;;;;;;5.20;3.67;;;18.40;99.90;;;;;;5039034;28;20368;-82
2023/09/05 06:23:03;;;;;;;5.82;4.00;;;18.40;99.90;;;;;;5020823;28;20025;-82
2023/09/05 06:25:28;;;;;;;4.43;3.70;;;18.50;99.90;;;;;;5037064;28;20457;-83
2023/09/05 06:27:54;;;;;;;4.15;3.75;;;18.50;99.90;;;;;;5063757;28;20070;-82
2023/09/05 06:30:20;;;;;;;4.93;3.88;;;18.50;99.90;;;;;;5056498;28;20484;-82
2023/09/05 06:32:46;;;;;;;5.50;4.35;;;18.50;99.90;;;;;;5039718;28;20027;-82
2023/09/05 06:35:11;;;;;;;5.60;4.68;;;18.50;99.90;;;;;;5039917;28;20467;-82
2023/09/05 06:37:38;;;;;;;4.35;3.92;;;18.50;99.90;;;;;;5039764;28;20431;-82
2023/09/05 06:40:12;;;;;;;6.28;4.13;;;18.60;99.90;;;;;;5074409;28;20081;-82
2023/09/05 06:42:42;;;;;;;5.28;4.43;;;18.60;99.90;;;;;;5074427;28;20017;-82
2023/09/05 06:45:08;;;;;;;4.72;3.85;;;18.70;99.90;;;;;;5037966;28;20123;-82
2023/09/05 06:47:34;;;;;;;5.32;4.00;;;18.70;99.90;;;;;;5044488;28;20016;-82
2023/09/05 06:50:00;;;;;;;5.53;4.30;;;18.80;99.90;;;;;;5056603;28;20024;-82
2023/09/05 06:52:26;;;;;;;5.20;3.47;;;18.80;99.90;;;;;;5057092;28;20074;-82
2023/09/05 06:54:52;;;;;;;5.50;3.33;;;18.80;99.90;;;;;;5058542;28;20017;-82
2023/09/05 06:57:18;;;;;;;6.32;3.70;;;18.90;99.90;;;;;;5081173;28;20049;-82
2023/09/05 06:59:44;;;;;;;4.88;3.28;;;18.90;99.90;;;;;;5065386;28;20020;-83
2023/09/05 07:02:10;;;;;;;4.57;3.35;;;19.00;99.90;;;;;;5070943;28;20098;-81
2023/09/05 07:04:36;;;;;;;3.83;3.30;;;19.10;99.90;;;;;;5080661;28;20028;-83
2023/09/05 07:07:03;;;;;;;6.47;3.90;;;19.20;99.90;;;;;;5075270;28;20035;-81
2023/09/05 07:09:29;;;;;;;4.63;3.17;;;19.20;99.90;;;;;;5056465;28;20020;-83
2023/09/05 07:11:55;;;;;;;5.15;3.25;;;19.20;99.90;;;;;;5056190;28;20078;-82
2023/09/05 07:14:23;;;;;;;6.72;3.67;;;19.30;99.90;;;;;;5023022;28;20033;-82
2023/09/05 07:16:49;;;;;;;4.78;3.90;;;19.40;99.90;;;;;;5008281;28;20093;-82
2023/09/05 07:19:16;;;;;;;5.47;3.50;;;19.40;99.90;;;;;;5053651;28;20131;-82
2023/09/05 07:21:42;;;;;;;4.30;3.72;;;19.50;99.90;;;;;;5019266;28;20059;-82
2023/09/05 07:24:10;;;;;;;4.95;3.63;;;19.50;99.90;;;;;;5018564;28;20061;-82
2023/09/05 07:26:38;;;;;;;3.42;3.13;;;19.50;99.90;;;;;;5019025;28;20083;-82
2023/09/05 07:29:04;;;;;;;3.97;3.10;;;19.70;99.90;;;;;;5027709;28;20048;-82
2023/09/05 07:31:32;;;;;;;3.75;3.30;;;19.70;99.90;;;;;;5056171;28;20051;-82
2023/09/05 07:33:58;;;;;;;4.97;3.28;;;19.80;99.90;;;;;;5022588;28;20016;-82
2023/09/05 07:36:24;;;;;;;6.20;3.17;;;19.80;99.90;;;;;;5073610;28;20111;-82
2023/09/05 07:38:50;;;;;;;4.60;3.15;;;19.90;99.90;;;;;;5055190;28;20115;-82
2023/09/05 07:41:16;;;;;;;3.40;2.85;;;19.90;99.90;;;;;;5038814;28;20421;-83
2023/09/05 07:43:41;;;;;;;5.75;2.88;;;20.00;99.90;;;;;;5028493;28;20021;-83
2023/09/05 07:46:07;;;;;;;3.67;2.40;;;20.10;99.90;;;;;;5019225;28;20099;-83
2023/09/05 07:48:33;;;;;;;3.53;2.58;;;20.10;99.90;;;;;;5037133;28;20492;-84
2023/09/05 07:51:01;;;;;;;2.72;2.20;;;20.20;99.90;;;;;;5035545;28;20064;-83
2023/09/05 07:53:27;;;;;;;3.72;2.42;;;20.40;99.90;;;;;;5019184;28;20465;-83
2023/09/05 07:55:53;;;;;;;3.15;2.20;;;20.40;99.90;;;;;;5039671;28;20032;-83
2023/09/05 07:58:19;;;;;;;3.30;2.00;;;20.50;99.90;;;;;;5038940;28;20544;-83
2023/09/05 08:00:44;;;;;;;3.05;2.00;;;20.50;99.90;;;;;;5038468;28;20044;-83
2023/09/05 08:03:10;;;;;;;2.88;2.08;;;20.60;99.90;;;;;;5073242;28;20032;-83
2023/09/05 08:05:35;;;;;;;3.08;2.38;;;20.70;99.90;;;;;;5038470;28;20035;-83
2023/09/05 08:08:01;;;;;;;2.92;2.28;;;20.80;99.90;;;;;;5055400;28;20448;-83
2023/09/05 08:10:27;;;;;;;2.85;2.30;;;20.80;99.90;;;;;;5055322;28;20363;-84
2023/09/05 08:12:52;;;;;;;2.65;2.13;;;20.90;99.90;;;;;;5037699;28;20111;-83
2023/09/05 08:15:18;;;;;;;2.92;2.20;;;21.00;99.90;;;;;;5037712;28;20411;-83
2023/09/05 08:17:44;;;;;;;4.38;2.05;;;21.00;99.90;;;;;;5002161;28;20033;-84
2023/09/05 08:20:12;;;;;;;3.08;2.35;;;21.10;99.90;;;;;;5035442;28;20172;-83
2023/09/05 08:22:41;;;;;;;3.45;2.13;;;21.20;99.80;;;;;;5035188;28;20368;-84
2023/09/05 08:25:09;;;;;;;2.80;2.28;;;21.30;99.80;;;;;;5052875;28;20017;-84
2023/09/05 08:27:35;;;;;;;2.88;2.50;;;21.30;99.70;;;;;;5053053;28;20495;-84
2023/09/05 08:30:01;;;;;;;3.00;2.10;;;21.40;99.60;;;;;;5052762;28;20041;-83
2023/09/05 08:32:28;;;;;;;3.25;2.30;;;21.50;99.50;;;;;;5018980;28;20092;-83
2023/09/05 08:34:54;;;;;;;3.15;2.10;;;21.50;99.40;;;;;;5035536;28;20028;-84
2023/09/05 08:37:20;;;;;;;4.88;2.63;;;21.60;99.40;;;;;;5060377;28;20376;-84
2023/09/05 08:39:46;;;;;;;7.68;2.38;;;21.70;99.30;;;;;;5053258;28;20547;-83
2023/09/05 08:42:12;;;;;;;4.43;2.35;;;21.70;99.30;;;;;;5042144;28;20119;-83
2023/09/05 08:44:41;;;;;;;2.78;2.38;;;21.90;99.30;;;;;;5042617;28;20027;-83
2023/09/05 08:47:07;;;;;;;3.65;2.50;;;21.80;99.20;;;;;;5059217;28;20463;-84
2023/09/05 08:49:33;;;;;;;4.05;2.20;;;22.00;99.20;;;;;;5059695;28;20072;-84
2023/09/05 08:52:02;;;;;;;3.13;2.22;;;22.00;99.20;;;;;;5100422;28;20985;-82
2023/09/05 08:54:29;;;;;;;3.05;2.13;;;22.10;99.20;;;;;;5083870;28;20028;-84
2023/09/05 08:56:57;;;;;;;3.45;1.95;;;22.10;99.30;;;;;;5078332;28;20028;-83
2023/09/05 08:59:25;;;;;;;2.97;2.30;;;22.10;99.30;;;;;;5083372;28;20005;-82
2023/09/05 09:01:50;;;;;;;2.47;2.00;;;22.20;99.20;;;;;;5096548;28;20021;-83
2023/09/05 09:04:19;;;;;;;2.65;2.13;;;22.30;99.10;;;;;;5025933;28;20024;-84
2023/09/05 09:06:57;;;;;;;4.97;2.30;;;22.40;99.10;;;;;;5058856;28;20017;-84
2023/09/05 09:09:34;;;;;;;3.13;2.15;;;22.40;99.00;;;;;;5042088;28;20009;-83
2023/09/05 09:12:00;;;;;;;5.28;2.03;;;22.50;99.00;;;;;;5071030;28;20020;-84
2023/09/05 09:14:26;;;;;;;2.97;2.00;;;22.60;99.00;;;;;;5041810;28;20028;-84
2023/09/05 09:16:52;;;;;;;3.00;2.10;;;22.60;98.90;;;;;;5038006;28;20384;-83
2023/09/05 09:19:18;;;;;;;3.70;2.20;;;22.70;98.90;;;;;;5021896;28;20025;-84
2023/09/05 09:21:45;;;;;;;2.75;2.25;;;22.70;98.80;;;;;;5021426;28;20036;-85
2023/09/05 09:24:12;;;;;;;4.05;2.47;;;22.80;98.70;;;;;;5036620;28;20108;-84
2023/09/05 09:26:39;;;;;;;3.67;2.20;;;22.90;98.70;;;;;;5057878;28;20035;-84
2023/09/05 09:29:09;;;;;;;2.70;2.20;;;22.90;98.70;;;;;;5075129;28;20468;-84
2023/09/05 09:31:34;;;;;;;3.47;2.08;;;23.00;98.60;;;;;;5057553;28;20464;-84
2023/09/05 09:34:00;;;;;;;2.20;1.98;;;23.10;98.60;;;;;;5075283;28;20033;-84
2023/09/05 09:36:37;;;;;;;2.47;2.00;;;23.10;98.30;;;;;;5057745;28;20029;-84
2023/09/05 09:39:11;;;;;;;3.83;2.00;;;23.20;98.30;;;;;;5037547;28;20355;-84
2023/09/05 09:41:45;;;;;;;2.88;1.90;;;23.30;98.20;;;;;;5057600;28;20422;-84
2023/09/05 09:44:28;;;;;;;4.65;2.13;;;23.30;98.00;;;;;;5032838;28;20471;-84
2023/09/05 09:46:54;;;;;;;2.20;1.80;;;23.40;97.70;;;;;;5054463;28;20024;-84
2023/09/05 09:49:22;;;;;;;2.67;1.77;;;23.50;97.70;;;;;;5021125;28;20024;-84
2023/09/05 09:51:54;;;;;;;2.00;1.48;;;23.60;97.50;;;;;;5039858;28;20021;-84
2023/09/05 09:54:31;;;;;;;2.42;1.52;;;23.60;97.30;;;;;;5057724;28;20027;-84
2023/09/05 09:57:06;;;;;;;2.08;1.73;;;23.70;97.30;;;;;;5056944;28;20020;-84
2023/09/05 09:59:36;;;;;;;2.20;1.52;;;23.80;97.40;;;;;;5057412;28;20027;-84
2023/09/05 10:02:15;;;;;;;2.05;1.40;;;23.90;97.40;;;;;;5028911;28;20070;-85
2023/09/05 10:04:42;;;;;;;2.03;1.40;;;23.90;96.80;;;;;;5020900;28;20415;-84
2023/09/05 10:07:14;;;;;;;1.70;1.42;;;23.90;96.70;;;;;;5059147;28;20024;-84
2023/09/05 10:09:43;;;;;;;1.90;1.33;;;24.10;96.70;;;;;;5075036;28;20024;-84
2023/09/05 10:12:09;;;;;;;1.90;1.60;;;24.10;96.60;;;;;;5057293;28;20036;-84
2023/09/05 10:14:36;;;;;;;2.70;2.00;;;24.20;96.60;;;;;;5057127;28;20407;-84
2023/09/05 10:17:03;;;;;;;1.60;1.50;;;24.20;96.70;;;;;;5056665;28;20028;-85
2023/09/05 10:19:29;;;;;;;3.85;1.60;;;24.30;96.70;;;;;;5024040;28;20115;-84
2023/09/05 10:21:57;;;;;;;3.03;1.70;;;24.30;96.40;;;;;;5056709;28;20024;-84
2023/09/05 10:24:29;;;;;;;2.00;1.63;;;24.40;96.00;;;;;;5056901;28;20012;-84
2023/09/05 10:26:55;;;;;;;2.47;1.50;;;24.40;95.90;;;;;;5062312;28;20056;-84
2023/09/05 10:29:32;;;;;;;1.73;1.60;;;24.50;95.90;;;;;;5033105;28;20081;-84
2023/09/05 10:31:58;;;;;;;1.42;1.33;;;24.60;95.80;;;;;;5033571;28;20014;-84
2023/09/05 10:34:46;;;;;;;1.77;1.67;;;24.60;95.80;;;;;;5033901;28;20021;-85
2023/09/05 10:37:13;;;;;;;1.83;1.40;;;24.70;95.70;;;;;;5033871;28;20029;-84
2023/09/05 10:39:44;;;;;;;2.40;1.50;;;24.80;95.80;;;;;;5036475;28;20369;-84
2023/09/05 10:42:12;;;;;;;2.00;1.50;;;24.90;95.70;;;;;;5035344;28;20029;-84
2023/09/05 10:44:44;;;;;;;2.47;1.58;;;24.90;95.60;;;;;;5021353;28;20032;-84
2023/09/05 10:47:35;;;;;;;1.40;1.30;;;25.00;95.60;;;;;;5048527;28;20036;-84
2023/09/05 10:50:04;;;;;;;3.08;1.33;;;25.10;95.60;;;;;;5035139;28;20025;-84
2023/09/05 10:52:30;;;;;;;1.48;1.38;;;25.10;95.60;;;;;;5070252;28;20095;-84
2023/09/05 10:55:29;;;;;;;1.75;1.48;;;25.20;95.60;;;;;;5074244;28;20024;-85
2023/09/05 10:57:56;;;;;;;2.95;1.60;;;25.20;95.40;;;;;;5076380;28;20071;-84
2023/09/05 11:00:26;;;;;;;2.17;1.42;;;25.30;95.40;;;;;;5076996;28;20049;-84
2023/09/05 11:02:54;;;;;;;1.40;1.30;;;25.40;95.30;;;;;;5070599;28;20029;-83
2023/09/05 11:05:20;;;;;;;1.80;1.30;;;25.40;95.30;;;;;;5056254;28;20021;-84
2023/09/05 11:07:50;;;;;;;2.13;1.40;;;25.50;95.40;;;;;;5052670;28;20041;-84
2023/09/05 11:10:26;;;;;;;1.50;1.38;;;25.50;95.40;;;;;;5051708;28;20055;-84
2023/09/05 11:12:52;;;;;;;1.75;1.20;;;25.60;95.10;;;;;;5032933;28;20024;-84
2023/09/05 11:15:31;;;;;;;1.40;1.25;;;25.60;95.20;;;;;;5032484;28;20013;-84
2023/09/05 11:18:05;;;;;;;2.10;1.58;;;25.70;95.20;;;;;;5032377;28;20377;-84
2023/09/05 11:20:43;;;;;;;2.25;1.30;;;25.70;94.90;;;;;;5032612;28;20354;-84
2023/09/05 11:23:34;;;;;;;1.52;1.40;;;25.70;94.90;;;;;;5032335;28;20112;-84
2023/09/05 11:26:10;;;;;;;1.38;1.27;;;25.80;94.90;;;;;;5033610;28;20108;-84
2023/09/05 11:28:37;;;;;;;2.85;1.30;;;25.90;95.10;;;;;;5032755;28;20357;-84
2023/09/05 11:31:04;;;;;;;2.55;1.33;;;26.00;95.00;;;;;;5015792;28;20489;-84
2023/09/05 11:33:31;;;;;;;1.73;1.40;;;26.00;94.80;;;;;;5026225;28;20036;-84
2023/09/05 11:35:57;;;;;;;1.90;1.42;;;26.00;94.60;;;;;;5052925;28;20082;-85
2023/09/05 11:38:24;;;;;;;1.73;1.45;;;26.10;94.60;;;;;;5043332;28;20020;-85
2023/09/05 11:40:51;;;;;;;1.67;1.58;;;26.20;94.50;;;;;;5027460;28;20071;-84
2023/09/05 11:43:16;;;;;;;3.15;1.45;;;26.20;94.40;;;;;;5046358;28;20045;-84
2023/09/05 11:45:43;;;;;;;1.70;1.30;;;26.30;94.30;;;;;;5032238;28;20049;-84
2023/09/05 11:48:11;;;;;;;2.42;1.50;;;26.30;94.10;;;;;;5015560;28;20128;-84
2023/09/05 11:50:42;;;;;;;2.72;1.50;;;26.40;94.00;;;;;;5032378;28;20053;-84
2023/09/05 11:53:11;;;;;;;1.23;1.13;;;26.50;93.90;;;;;;5032062;28;20029;-84
2023/09/05 11:55:38;;;;;;;2.13;1.07;;;26.50;93.70;;;;;;5032619;28;20017;-84
2023/09/05 11:58:05;;;;;;;1.25;1.15;;;26.60;93.80;;;;;;5047523;28;20045;-85
2023/09/05 12:00:35;;;;;;;1.80;1.42;;;26.60;93.80;;;;;;5049265;28;20041;-84
2023/09/05 12:03:01;;;;;;;1.40;1.25;;;26.60;93.70;;;;;;5031985;28;20025;-84
2023/09/05 12:05:26;;;;;;;1.83;1.50;;;26.60;93.50;;;;;;5015573;28;20361;-84
2023/09/05 12:07:54;;;;;;;1.42;1.30;;;26.70;94.00;;;;;;4999345;28;20036;-85
2023/09/05 12:10:22;;;;;;;1.65;1.23;;;26.70;93.50;;;;;;5032541;28;20024;-84
2023/09/05 12:12:56;;;;;;;2.83;1.42;;;26.80;93.50;;;;;;5046428;28;20024;-84
2023/09/05 12:15:35;;;;;;;1.92;1.40;;;26.80;93.40;;;;;;5055733;28;20025;-84
2023/09/05 12:18:05;;;;;;;1.42;1.33;;;26.80;93.50;;;;;;5055863;28;20483;-85
2023/09/05 12:20:32;;;;;;;;;;;26.90;93.40;;;;;;5039687;28;20021;-84
2023/09/05 12:22:58;;;;;;;1.52;1.30;;;26.90;93.10;;;;;;5055831;28;20335;-85
2023/09/05 12:25:26;;;;;;;2.20;1.20;;;26.90;93.10;;;;;;5056568;28;20074;-84
2023/09/05 12:27:55;;;;;;;1.42;1.33;;;27.00;93.40;;;;;;5029207;28;20123;-84
2023/09/05 12:30:31;;;;;;;1.77;1.10;;;27.00;93.10;;;;;;5023762;28;20045;-84
2023/09/05 12:33:00;;;;;;;1.40;1.30;;;27.00;92.90;;;;;;5055671;28;20155;-82
2023/09/05 12:35:29;;;;;;;1.75;1.45;;;27.10;92.80;;;;;;5046500;28;20025;-82
2023/09/05 12:37:56;;;;;;;1.35;1.15;;;27.10;92.90;;;;;;5019607;28;20033;-82
2023/09/05 12:40:22;;;;;;;1.80;1.35;;;27.10;92.80;;;;;;5021357;28;20032;-82
2023/09/05 12:42:49;;;;;;;1.38;1.20;;;27.20;92.60;;;;;;5038904;28;20024;-83
2023/09/05 12:45:16;;;;;;;1.27;1.13;;;27.20;92.70;;;;;;5057173;28;20063;-84
2023/09/05 12:47:41;;;;;;;2.30;1.55;;;27.20;92.50;;;;;;5022875;28;20033;-84
2023/09/05 12:50:15;;;;;;;1.23;1.13;;;27.30;92.20;;;;;;5055776;28;20017;-85
2023/09/05 12:52:43;;;;;;;1.45;1.20;;;27.40;92.20;;;;;;5057305;28;20512;-85